EFKE/KEM METAR and TAF weather

Enter ICAO airport designator
Station Type Date Time Source
EFKE METAR 2018/07/21 22:50 UTC NOAA

EFKE 212250Z AUTO 04002KT //// OVC027 19/19 Q1004


Station Type Date Time Source
EFKE Decoded METAR 2018/07/21 22:50 UTC NOAA

Kemi, Finland (EFKE) 65-47N 024-35E
Jul 21, 2018 - 06:50 PM EDT / 2018.07.21 2250 UTC
Wind: from the NE (040 degrees) at 2 MPH (2 KT):0
Sky conditions: overcast
Temperature: 66 F (19 C)
Dew Point: 66 F (19 C)
Relative Humidity: 100%
Pressure (altimeter): 29.65 in. Hg (1004 hPa)
ob: EFKE 212250Z AUTO 04002KT //// OVC027 19/19 Q1004
cycle: 23

Station Type Date Time Source
EFKE TAF 2015/01/12 15:42 UTC NOAA

TAF EFKE 121433Z 1215/1312 03006KT CAVOK
BECMG 1300/1302 9999 BKN015
FM130400 07008KT 9999 SCT014 BKN018
TEMPO 1304/1312 7000 -SN


Example: see airport list